EDDP/LEJ METAR and TAF weather

Enter ICAO airport designator
Station Type Date Time Source
EDDP METAR 2022/07/03 14:50 UTC NOAA

EDDP 031450Z 29007KT 230V350 CAVOK 30/12 Q1016 NOSIG


Station Type Date Time Source
EDDP Decoded METAR 2022/07/03 14:50 UTC NOAA

Leipzig-Schkeuditz, Germany (EDDP) 51-25N 012-14E 149M
Jul 03, 2022 - 10:50 AM EDT / 2022.07.03 1450 UTC
Wind: from the WNW (290 degrees) at 8 MPH (7 KT) (direction variable):0
Visibility: greater than 7 mile(s):0
Temperature: 86 F (30 C)
Dew Point: 53 F (12 C)
Relative Humidity: 33%
Pressure (altimeter): 30.00 in. Hg (1016 hPa)
ob: EDDP 031450Z 29007KT 230V350 CAVOK 30/12 Q1016 NOSIG
cycle: 15

Station Type Date Time Source
EDDP TAF 2022/07/03 12:27 UTC NOAA

TAF EDDP 031100Z 0312/0412 24003KT CAVOK
BECMG 0317/0320 32007KT

Example: see airport list